Terminal Aerodrome Forecast
Issued by NWS

Home | Current Version | Previous Version | Text Only | Print | Product List | Glossary On
Versions: 1 2 3 4 5 6 7 8 9 10 11 12 13 14 15
975
FTPA31 PHFO 260306 AAA
TAFHJR
TAF AMD
PHJR 260306Z 2603/2624 06010G17KT P6SM FEW045
     FM260600 05010KT P6SM FEW030
     FM261000 05005KT P6SM FEW030
     FM262000 08010G17KT P6SM FEW020 SCT045=

USA.gov is the U.S. government's official web portal to all federal, state and local government web resources and services.